Time;durP1;ratioP1;P1;durP2;ratioP2;P2;SDS_P1;SDS_P2;PMS_P1;PMS_P2;Temp;Humidity;BMP_temperature;BMP_pressure;BME280_temperature;BME280_humidity;BME280_pressure;Samples;Min_cycle;Max_cycle;Signal;HPM_P1;HPM_P2
2021/10/08 00:00:59;;;;;;;4.20;2.60;;;;;;;6.60;93.67;102407.12;115681;1193;59645;-78
2021/10/08 00:03:26;;;;;;;4.70;3.10;;;;;;;6.59;93.72;102407.23;115580;1193;61775;-78
2021/10/08 00:05:52;;;;;;;6.10;3.40;;;;;;;6.58;93.83;102409.55;115581;1193;61483;-78
2021/10/08 00:08:20;;;;;;;7.90;3.60;;;;;;;6.56;93.64;102411.09;115581;1193;76261;-78
2021/10/08 00:10:46;;;;;;;6.00;3.10;;;;;;;6.53;93.70;102416.59;115582;1193;72610;-78
2021/10/08 00:13:13;;;;;;;5.30;3.60;;;;;;;6.52;94.56;102415.03;115557;1193;72634;-78
2021/10/08 00:15:39;;;;;;;5.50;3.20;;;;;;;6.52;94.25;102414.02;115558;1193;60016;-78
2021/10/08 00:18:06;;;;;;;6.50;2.70;;;;;;;6.49;94.08;102413.67;115537;1187;60062;-78
2021/10/08 00:20:32;;;;;;;5.60;3.20;;;;;;;6.47;94.20;102415.02;115633;1193;76548;-78
2021/10/08 00:22:59;;;;;;;5.20;3.70;;;;;;;6.48;94.16;102415.17;115606;1193;72110;-79
2021/10/08 00:25:25;;;;;;;5.00;2.80;;;;;;;6.47;94.01;102416.27;115469;1195;73674;-78
2021/10/08 00:27:52;;;;;;;5.10;3.20;;;;;;;6.46;93.63;102417.94;115555;1193;59769;-78
2021/10/08 00:30:19;;;;;;;5.70;3.30;;;;;;;6.45;94.07;102413.59;115610;1193;59711;-79
2021/10/08 00:32:45;;;;;;;5.10;3.20;;;;;;;6.47;93.85;102419.65;115568;1194;75305;-79
2021/10/08 00:35:14;;;;;;;4.00;2.70;;;;;;;6.47;94.21;102419.08;115574;1195;73015;-79
2021/10/08 00:37:40;;;;;;;6.60;3.50;;;;;;;6.47;93.92;102417.48;115611;1193;72565;-79
2021/10/08 00:40:08;;;;;;;5.40;3.40;;;;;;;6.47;93.97;102420.00;115585;1193;60518;-80
2021/10/08 00:42:34;;;;;;;6.30;3.40;;;;;;;6.42;93.22;102419.59;115579;1193;60059;-79
2021/10/08 00:45:01;;;;;;;5.10;3.20;;;;;;;6.36;92.86;102420.91;115543;1195;76734;-79
2021/10/08 00:47:28;;;;;;;5.90;3.30;;;;;;;6.31;92.94;102422.50;115567;1193;72070;-79
2021/10/08 00:49:54;;;;;;;6.40;3.30;;;;;;;6.25;93.24;102424.83;115553;1193;74245;-79
2021/10/08 00:52:21;;;;;;;5.70;3.40;;;;;;;6.20;93.27;102423.44;115603;1194;60551;-79
2021/10/08 00:54:48;;;;;;;7.30;3.60;;;;;;;6.15;93.33;102422.36;115528;1194;59736;-79
2021/10/08 00:57:14;;;;;;;5.20;2.80;;;;;;;6.11;93.33;102421.21;115580;1193;59675;-79
2021/10/08 00:59:42;;;;;;;4.90;3.50;;;;;;;6.09;93.93;102416.57;115655;1193;59792;-79
2021/10/08 01:02:08;;;;;;;6.40;3.20;;;;;;;6.09;93.83;102421.18;115629;1193;72554;-79
2021/10/08 01:04:35;;;;;;;5.30;2.90;;;;;;;6.05;93.52;102423.51;115622;1193;61664;-79
2021/10/08 01:07:02;;;;;;;4.70;2.90;;;;;;;6.05;93.85;102425.80;115630;1193;60385;-79
2021/10/08 01:09:28;;;;;;;4.20;2.90;;;;;;;6.05;94.31;102424.05;115627;1193;75408;-79
2021/10/08 01:11:55;;;;;;;5.60;3.10;;;;;;;6.05;94.25;102426.38;115648;1193;59673;-79
2021/10/08 01:14:22;;;;;;;5.00;3.10;;;;;;;6.03;94.39;102428.03;115604;1193;74185;-79
2021/10/08 01:16:48;;;;;;;5.40;3.30;;;;;;;6.02;94.24;102433.53;115644;1193;61134;-79
2021/10/08 01:19:16;;;;;;;5.80;3.00;;;;;;;6.00;93.98;102434.73;115573;1193;61574;-79
2021/10/08 01:21:44;;;;;;;5.00;3.20;;;;;;;5.97;93.45;102433.20;115603;1193;75558;-79
2021/10/08 01:24:11;;;;;;;5.50;3.40;;;;;;;5.95;93.66;102431.06;115546;1193;72148;-79
2021/10/08 01:26:37;;;;;;;5.50;3.40;;;;;;;5.93;93.78;102432.39;115578;1194;72621;-79
2021/10/08 01:29:10;;;;;;;6.00;3.30;;;;;;;5.95;94.28;102427.04;115498;1193;62053;-79
2021/10/08 01:31:37;;;;;;;6.80;3.10;;;;;;;5.94;94.08;102425.47;115528;1194;59956;-79
2021/10/08 01:34:04;;;;;;;7.10;2.70;;;;;;;5.90;93.76;102427.61;115582;1193;76423;-79
2021/10/08 01:36:31;;;;;;;7.70;3.00;;;;;;;5.89;93.97;102431.45;115600;1194;59594;-79
2021/10/08 01:38:57;;;;;;;7.40;3.90;;;;;;;5.89;93.88;102431.44;115591;1193;73711;-79
2021/10/08 01:41:24;;;;;;;7.90;4.20;;;;;;;5.86;93.42;102427.92;115612;1193;61432;-79
2021/10/08 01:43:50;;;;;;;5.40;3.30;;;;;;;5.82;93.20;102428.39;115547;1193;59716;-79
2021/10/08 01:46:17;;;;;;;5.40;2.70;;;;;;;5.77;93.28;102425.34;115594;1193;59640;-78
2021/10/08 01:48:44;;;;;;;5.90;3.20;;;;;;;5.75;93.78;102422.16;115539;1194;72959;-78
2021/10/08 01:51:11;;;;;;;5.80;3.20;;;;;;;5.74;93.81;102424.83;115612;1193;73566;-78
2021/10/08 01:53:37;;;;;;;5.70;3.20;;;;;;;5.71;93.63;102420.80;115552;1193;60300;-78
2021/10/08 01:56:04;;;;;;;5.30;2.60;;;;;;;5.69;93.55;102423.07;115638;1193;60458;-80
2021/10/08 01:58:31;;;;;;;7.30;3.10;;;;;;;5.65;93.38;102419.67;115562;1195;75458;-80
2021/10/08 02:00:58;;;;;;;4.40;2.90;;;;;;;5.61;93.33;102423.59;115623;1193;72524;-80
2021/10/08 02:03:24;;;;;;;5.30;2.80;;;;;;;5.58;93.54;102422.92;115577;1193;72686;-81
2021/10/08 02:05:51;;;;;;;6.50;3.30;;;;;;;5.57;93.56;102424.06;115570;1194;63020;-79
2021/10/08 02:08:17;;;;;;;8.10;2.70;;;;;;;5.56;93.68;102424.77;115469;1195;60530;-79
2021/10/08 02:10:44;;;;;;;4.90;3.00;;;;;;;5.56;93.94;102421.09;115631;1193;59767;-79
2021/10/08 02:13:11;;;;;;;4.50;3.00;;;;;;;5.57;94.08;102425.08;115576;1193;70903;-79
2021/10/08 02:15:37;;;;;;;4.50;2.80;;;;;;;5.55;93.28;102424.54;115571;1193;73726;-79
2021/10/08 02:18:04;;;;;;;4.20;3.30;;;;;;;5.50;93.16;102429.05;115540;1193;63012;-79
2021/10/08 02:20:30;;;;;;;6.50;4.00;;;;;;;5.47;93.69;102427.11;115631;1193;61001;-79
2021/10/08 02:22:57;;;;;;;4.30;2.90;;;;;;;5.44;93.46;102426.30;115573;1193;76365;-79
2021/10/08 02:25:23;;;;;;;10.30;2.80;;;;;;;5.41;93.70;102428.59;115585;1193;59673;-79
2021/10/08 02:27:50;;;;;;;5.80;3.30;;;;;;;5.41;94.33;102430.48;115568;1193;59699;-79
2021/10/08 02:30:18;;;;;;;7.70;3.50;;;;;;;5.43;94.29;102433.68;115582;1193;59676;-79
2021/10/08 02:32:44;;;;;;;6.00;3.40;;;;;;;5.44;94.35;102436.79;115523;1194;60234;-79
2021/10/08 02:35:11;;;;;;;5.80;3.40;;;;;;;5.44;94.31;102436.77;115593;1193;75385;-78
2021/10/08 02:37:38;;;;;;;5.30;3.30;;;;;;;5.44;94.20;102437.82;115510;1193;72233;-78
2021/10/08 02:40:06;;;;;;;4.90;3.00;;;;;;;5.43;93.99;102437.04;115568;1193;73596;-80
2021/10/08 02:42:34;;;;;;;5.00;2.50;;;;;;;5.42;93.92;102439.74;115534;1195;60459;-80
2021/10/08 02:45:00;;;;;;;5.10;2.60;;;;;;;5.39;94.20;102437.79;115609;1193;60263;-79
2021/10/08 02:47:27;;;;;;;5.20;2.70;;;;;;;5.35;93.87;102439.66;115565;1194;60431;-79
2021/10/08 02:49:53;;;;;;;4.20;2.60;;;;;;;5.31;94.21;102435.84;115632;1193;59802;-79
2021/10/08 02:52:20;;;;;;;3.10;2.20;;;;;;;5.29;94.25;102441.75;115533;1193;59708;-79
2021/10/08 02:55:06;;;;;;;5.30;2.50;;;;;;;5.27;94.44;102438.77;115435;1195;61756;-78
2021/10/08 02:57:39;;;;;;;4.90;2.60;;;;;;;5.25;94.44;102441.87;115551;1193;61520;-78
2021/10/08 03:00:07;;;;;;;4.50;2.70;;;;;;;5.24;94.72;102447.55;115579;1193;74874;-79
2021/10/08 03:02:34;;;;;;;3.50;2.40;;;;;;;5.24;94.90;102451.43;115572;1193;72088;-78
2021/10/08 03:05:01;;;;;;;6.10;1.90;;;;;;;5.23;94.90;102449.70;115559;1193;72509;-78
2021/10/08 03:07:27;;;;;;;6.90;2.10;;;;;;;5.22;94.86;102449.96;115536;1193;62911;-78
2021/10/08 03:09:54;;;;;;;4.10;2.00;;;;;;;5.22;94.89;102453.13;115579;1193;59779;-78
2021/10/08 03:12:21;;;;;;;3.50;2.50;;;;;;;5.20;95.02;102450.25;115547;1193;60378;-79
2021/10/08 03:14:47;;;;;;;3.20;2.00;;;;;;;5.17;94.65;102447.99;115513;1193;73268;-79
2021/10/08 03:17:14;;;;;;;4.00;2.40;;;;;;;5.13;94.78;102449.61;115576;1193;72818;-79
2021/10/08 03:19:41;;;;;;;3.70;2.10;;;;;;;5.11;95.06;102444.51;115617;1193;63410;-79
2021/10/08 03:22:09;;;;;;;3.50;2.40;;;;;;;5.09;94.89;102446.40;115646;1193;61001;-79
2021/10/08 03:24:36;;;;;;;4.90;2.60;;;;;;;5.06;94.70;102441.16;115613;1194;75370;-79
2021/10/08 03:27:03;;;;;;;4.40;2.40;;;;;;;5.03;94.84;102444.81;115682;1193;72141;-79
2021/10/08 03:29:29;;;;;;;6.40;2.90;;;;;;;5.00;94.72;102446.05;115609;1193;72704;-79
2021/10/08 03:31:56;;;;;;;4.50;2.70;;;;;;;4.97;94.89;102447.30;115664;1193;60093;-79
2021/10/08 03:34:22;;;;;;;6.20;3.70;;;;;;;4.96;95.12;102452.46;115620;1193;59642;-79
2021/10/08 03:36:51;;;;;;;5.00;3.20;;;;;;;4.96;95.34;102448.04;115603;1193;60038;-78
2021/10/08 03:39:22;;;;;;;5.30;3.20;;;;;;;4.96;95.32;102449.16;115622;1193;71151;-78
2021/10/08 03:41:50;;;;;;;5.40;3.60;;;;;;;4.94;95.41;102453.08;115618;1193;72788;-78
2021/10/08 03:44:17;;;;;;;5.70;3.80;;;;;;;4.93;95.67;102454.05;115588;1193;60279;-78
2021/10/08 03:46:47;;;;;;;5.50;3.50;;;;;;;4.90;95.51;102455.11;115604;1195;60412;-78
2021/10/08 03:49:15;;;;;;;4.60;2.30;;;;;;;4.86;95.43;102450.06;115651;1193;73355;-78
2021/10/08 03:51:45;;;;;;;7.10;3.60;;;;;;;4.82;95.75;102447.33;115630;1193;71029;-79
2021/10/08 03:54:13;;;;;;;4.60;3.20;;;;;;;4.81;95.79;102450.69;115609;1193;73483;-79
2021/10/08 03:56:40;;;;;;;6.10;3.50;;;;;;;4.81;95.74;102456.37;115635;1193;62926;-78
2021/10/08 03:59:07;;;;;;;8.40;4.00;;;;;;;4.80;95.97;102457.41;115680;1193;60424;-78
2021/10/08 04:01:34;;;;;;;7.50;4.30;;;;;;;4.82;96.41;102456.44;115584;1193;77504;-78
2021/10/08 04:04:04;;;;;;;9.80;4.30;;;;;;;4.86;96.68;102461.14;115622;1193;72221;-78
2021/10/08 04:06:35;;;;;;;9.00;3.90;;;;;;;4.87;96.39;102460.54;115619;1193;72587;-78
2021/10/08 04:09:07;;;;;;;8.20;4.70;;;;;;;4.86;96.31;102461.09;115599;1193;62876;-79
2021/10/08 04:11:34;;;;;;;8.30;4.30;;;;;;;4.88;96.93;102462.71;115618;1193;61547;-78
2021/10/08 04:14:01;;;;;;;6.50;3.90;;;;;;;4.93;97.07;102461.77;115631;1193;77708;-78
2021/10/08 04:16:28;;;;;;;8.00;4.40;;;;;;;4.92;96.62;102468.64;115634;1193;71139;-78
2021/10/08 04:18:54;;;;;;;9.40;4.40;;;;;;;4.91;96.67;102468.00;115633;1193;59726;-78
2021/10/08 04:21:21;;;;;;;6.70;4.10;;;;;;;4.91;97.03;102469.93;115598;1193;60079;-78
2021/10/08 04:23:47;;;;;;;7.80;4.50;;;;;;;4.91;97.01;102465.75;115634;1193;59674;-78
2021/10/08 04:26:14;;;;;;;6.60;3.80;;;;;;;4.91;96.83;102469.58;115592;1193;75398;-78
2021/10/08 04:28:41;;;;;;;9.70;4.40;;;;;;;4.88;96.23;102469.38;115585;1193;71834;-78
2021/10/08 04:31:08;;;;;;;8.30;4.20;;;;;;;4.83;95.81;102464.31;115605;1193;72956;-80
2021/10/08 04:33:34;;;;;;;6.00;3.60;;;;;;;4.76;95.48;102468.05;115596;1193;61589;-79
2021/10/08 04:36:01;;;;;;;7.80;3.90;;;;;;;4.67;94.86;102469.83;115633;1193;60885;-78
2021/10/08 04:38:29;;;;;;;4.60;2.60;;;;;;;4.58;94.62;102469.68;115616;1193;75575;-79
2021/10/08 04:40:57;;;;;;;5.50;2.80;;;;;;;4.49;94.52;102471.63;115610;1194;72379;-72
2021/10/08 04:43:23;;;;;;;4.50;3.00;;;;;;;4.43;94.95;102476.34;115619;1193;73588;-72
2021/10/08 04:45:50;;;;;;;4.80;2.90;;;;;;;4.42;95.80;102473.21;115566;1195;61666;-73
2021/10/08 04:48:16;;;;;;;6.10;3.00;;;;;;;4.44;96.27;102477.30;115610;1195;59904;-73
2021/10/08 04:50:43;;;;;;;4.10;2.80;;;;;;;4.46;96.18;102476.48;115592;1193;74150;-72
2021/10/08 04:53:19;;;;;;;5.00;3.10;;;;;;;4.50;96.11;102474.18;115618;1193;70988;-72
2021/10/08 04:55:47;;;;;;;5.60;3.40;;;;;;;4.51;96.08;102474.14;115561;1193;72775;-73
2021/10/08 04:58:15;;;;;;;4.70;2.70;;;;;;;4.52;95.96;102476.31;115609;1193;61668;-73
2021/10/08 05:03:08;;;;;;;4.60;3.30;;;;;;;4.55;95.84;102475.09;110302;1208;600407;-74
2021/10/08 05:05:35;;;;;;;4.50;3.10;;;;;;;4.53;96.07;102474.88;111542;1198;62500;-71
2021/10/08 05:08:01;;;;;;;5.30;3.40;;;;;;;4.52;95.93;102475.31;111663;1196;60309;-71
2021/10/08 05:10:30;;;;;;;6.50;3.40;;;;;;;4.51;96.12;102476.78;111660;1196;72374;-73
2021/10/08 05:12:58;;;;;;;6.50;3.70;;;;;;;4.52;96.20;102479.67;111871;1196;72043;-72
2021/10/08 05:15:25;;;;;;;5.50;2.70;;;;;;;4.50;95.69;102482.58;111796;1196;74153;-72
2021/10/08 05:17:52;;;;;;;5.30;3.20;;;;;;;4.44;95.16;102485.88;111607;1196;59132;-72
2021/10/08 05:20:18;;;;;;;5.30;3.40;;;;;;;4.40;95.18;102490.71;111731;1196;61340;-71
2021/10/08 05:22:45;;;;;;;5.80;3.40;;;;;;;4.37;95.75;102486.63;111627;1196;59087;-70
2021/10/08 05:25:11;;;;;;;7.40;3.90;;;;;;;4.37;95.74;102487.34;111776;1196;73489;-75
2021/10/08 05:27:38;;;;;;;7.70;4.10;;;;;;;4.36;95.78;102490.94;111618;1198;59447;-74
2021/10/08 05:30:06;;;;;;;9.20;4.20;;;;;;;4.36;96.53;102494.41;111750;1197;61319;-70
2021/10/08 05:32:32;;;;;;;10.20;4.00;;;;;;;4.37;96.12;102497.91;111869;1197;60295;-73
2021/10/08 05:34:59;;;;;;;8.50;4.40;;;;;;;4.36;96.20;102497.39;111759;1196;59372;-70
2021/10/08 05:37:25;;;;;;;6.20;4.40;;;;;;;4.36;95.80;102503.02;111691;1196;59521;-71
2021/10/08 05:39:52;;;;;;;7.50;4.10;;;;;;;4.34;95.20;102500.16;111509;1196;59389;-72
2021/10/08 05:42:18;;;;;;;8.20;4.20;;;;;;;4.30;94.82;102502.52;111437;1197;59383;-71
2021/10/08 05:44:45;;;;;;;9.10;3.70;;;;;;;4.23;94.57;102503.58;111357;1198;59474;-71
2021/10/08 05:47:11;;;;;;;6.90;3.30;;;;;;;4.19;95.02;102504.39;111372;1196;59396;-73
2021/10/08 05:49:39;;;;;;;5.80;3.80;;;;;;;4.14;95.01;102507.08;111458;1198;59446;-72
2021/10/08 05:52:06;;;;;;;4.50;2.80;;;;;;;4.09;95.25;102503.88;111670;1196;74000;-70
2021/10/08 05:54:32;;;;;;;4.70;2.90;;;;;;;4.06;95.16;102505.98;111624;1196;61715;-73
2021/10/08 05:56:59;;;;;;;5.40;3.60;;;;;;;4.07;95.55;102509.38;111532;1198;60611;-72
2021/10/08 05:59:25;;;;;;;5.70;4.10;;;;;;;4.06;95.35;102519.06;111568;1196;59447;-71
2021/10/08 06:01:52;;;;;;;5.90;3.80;;;;;;;4.07;95.71;102519.92;111507;1198;59426;-69
2021/10/08 06:04:19;;;;;;;5.50;3.80;;;;;;;4.11;96.00;102525.27;111559;1196;72537;-70
2021/10/08 06:06:45;;;;;;;6.50;4.60;;;;;;;4.16;96.04;102522.05;111523;1198;59399;-72
2021/10/08 06:09:12;;;;;;;6.60;4.30;;;;;;;4.21;96.29;102525.26;111516;1196;59435;-71
2021/10/08 06:11:38;;;;;;;7.30;4.50;;;;;;;4.23;95.69;102527.08;111372;1196;60564;-71
2021/10/08 06:14:05;;;;;;;6.50;4.50;;;;;;;4.22;95.61;102530.80;111494;1197;59430;-71
2021/10/08 06:16:31;;;;;;;5.20;3.90;;;;;;;4.26;96.29;102530.01;111418;1198;73453;-70
2021/10/08 06:18:58;;;;;;;8.10;4.10;;;;;;;4.34;96.95;102529.79;111479;1198;61355;-71
2021/10/08 06:21:25;;;;;;;6.30;4.00;;;;;;;4.41;96.69;102537.39;111651;1198;60597;-72
2021/10/08 06:23:52;;;;;;;8.20;4.80;;;;;;;4.48;96.65;102537.00;111455;1198;59547;-71
2021/10/08 06:26:18;;;;;;;6.70;4.10;;;;;;;4.56;96.70;102534.77;111499;1190;72018;-72
2021/10/08 06:28:45;;;;;;;8.40;4.30;;;;;;;4.62;96.59;102536.05;111547;1199;59348;-71
2021/10/08 06:31:11;;;;;;;10.90;4.30;;;;;;;4.67;96.58;102538.19;111516;1197;60282;-71
2021/10/08 06:33:38;;;;;;;7.10;4.10;;;;;;;4.73;96.49;102541.27;111571;1198;60180;-69
2021/10/08 06:36:05;;;;;;;6.70;4.30;;;;;;;4.80;96.30;102542.27;111585;1198;72922;-72
2021/10/08 06:38:31;;;;;;;6.20;4.00;;;;;;;4.87;96.44;102540.64;111560;1198;70975;-71
2021/10/08 06:40:58;;;;;;;8.10;4.80;;;;;;;4.93;96.42;102543.43;111488;1198;59380;-72
2021/10/08 06:43:24;;;;;;;8.00;4.70;;;;;;;4.99;96.32;102547.50;111465;1197;60157;-71
2021/10/08 06:45:51;;;;;;;7.90;4.90;;;;;;;5.04;96.26;102551.52;111463;1198;61355;-70
2021/10/08 06:48:18;;;;;;;10.20;5.30;;;;;;;5.11;96.19;102553.73;111564;1198;59381;-72
2021/10/08 06:50:44;;;;;;;9.60;5.10;;;;;;;5.18;96.23;102556.48;111478;1198;72090;-70
2021/10/08 06:53:11;;;;;;;6.30;4.10;;;;;;;5.25;96.25;102557.25;111417;1198;59438;-70
2021/10/08 06:55:37;;;;;;;6.40;4.10;;;;;;;5.33;96.17;102558.73;111560;1198;59405;-71
2021/10/08 06:58:05;;;;;;;10.90;4.50;;;;;;;5.40;96.10;102560.06;111713;1198;61380;-71
2021/10/08 07:00:31;;;;;;;7.10;4.70;;;;;;;5.47;96.11;102562.05;111624;1198;70918;-70
2021/10/08 07:03:01;;;;;;;8.30;3.80;;;;;;;5.57;96.32;102563.23;111524;1198;70063;-71
2021/10/08 07:05:28;;;;;;;6.10;3.50;;;;;;;5.67;96.28;102565.52;111513;1198;73541;-71
2021/10/08 07:07:55;;;;;;;4.80;3.70;;;;;;;5.80;96.36;102564.39;111570;1198;63249;-71
2021/10/08 07:10:22;;;;;;;5.30;3.50;;;;;;;5.91;96.16;102566.13;111808;1198;60077;-70
2021/10/08 07:12:48;;;;;;;5.80;4.10;;;;;;;6.05;96.01;102566.52;111619;1197;72972;-70
2021/10/08 07:15:17;;;;;;;5.30;3.50;;;;;;;6.16;95.61;102568.81;111540;1198;59874;-72
2021/10/08 07:17:48;;;;;;;6.60;4.40;;;;;;;6.27;95.64;102568.58;111589;1198;72557;-70
2021/10/08 07:20:18;;;;;;;5.40;3.20;;;;;;;6.40;95.63;102570.21;111483;1198;60155;-70
2021/10/08 07:22:45;;;;;;;7.20;4.40;;;;;;;6.50;95.21;102572.35;111594;1197;61172;-70
2021/10/08 07:25:12;;;;;;;6.90;4.20;;;;;;;6.63;94.90;102573.27;111539;1198;72002;-70
2021/10/08 07:27:41;;;;;;;6.20;4.30;;;;;;;6.72;94.56;102574.77;111593;1189;70265;-70
2021/10/08 07:30:08;;;;;;;6.60;4.00;;;;;;;6.85;94.70;102576.16;111394;1197;72490;-70
2021/10/08 07:32:36;;;;;;;6.30;4.30;;;;;;;6.99;94.78;102576.60;111829;1195;62763;-70
2021/10/08 07:35:03;;;;;;;9.30;4.50;;;;;;;7.15;94.40;102573.42;111775;1196;59498;-70
2021/10/08 07:37:30;;;;;;;6.30;3.60;;;;;;;7.28;93.95;102571.80;111947;1195;73949;-69
2021/10/08 07:39:57;;;;;;;6.80;4.20;;;;;;;7.37;93.79;102568.00;111753;1196;72003;-71
2021/10/08 07:42:25;;;;;;;4.40;3.20;;;;;;;7.43;93.28;102568.16;111968;1195;72295;-70
2021/10/08 07:44:51;;;;;;;5.90;3.80;;;;;;;7.46;93.18;102569.29;112055;1196;60797;-71
2021/10/08 07:47:19;;;;;;;6.50;4.20;;;;;;;7.53;93.22;102574.42;112329;1195;59388;-70
2021/10/08 07:49:46;;;;;;;7.70;4.00;;;;;;;7.59;92.90;102578.60;112114;1195;73988;-70
2021/10/08 07:52:13;;;;;;;11.50;5.40;;;;;;;7.61;92.30;102578.44;111858;1195;72153;-70
2021/10/08 07:54:41;;;;;;;9.20;5.40;;;;;;;7.69;92.86;102576.67;111767;1195;72693;-72
2021/10/08 07:57:08;;;;;;;7.30;2.90;;;;;;;7.84;93.21;102576.64;111797;1197;62701;-71
2021/10/08 07:59:34;;;;;;;7.80;4.20;;;;;;;7.97;92.88;102576.75;111823;1195;60094;-71
2021/10/08 08:02:01;;;;;;;8.60;3.90;;;;;;;8.07;92.92;102579.50;112207;1192;60545;-71
2021/10/08 08:04:27;;;;;;;5.20;3.60;;;;;;;8.17;92.52;102574.89;112264;1192;70745;-71
2021/10/08 08:06:54;;;;;;;7.00;4.50;;;;;;;8.27;92.38;102576.98;112007;1192;72525;-71
2021/10/08 08:09:21;;;;;;;6.30;3.80;;;;;;;8.30;91.66;102579.14;112125;1193;60482;-71
2021/10/08 08:11:47;;;;;;;7.10;3.70;;;;;;;8.29;91.64;102578.86;112309;1192;59452;-71
2021/10/08 08:14:14;;;;;;;6.50;3.50;;;;;;;8.34;91.53;102581.94;112358;1192;72908;-72
2021/10/08 08:16:40;;;;;;;5.60;4.10;;;;;;;8.47;91.97;102579.98;112247;1193;70983;-71
2021/10/08 08:19:09;;;;;;;6.60;4.20;;;;;;;8.66;92.61;102578.69;112358;1192;60352;-72
2021/10/08 08:21:36;;;;;;;5.90;4.00;;;;;;;8.90;92.19;102579.77;112374;1192;62508;-70
2021/10/08 08:24:03;;;;;;;8.40;4.00;;;;;;;9.04;91.05;102588.03;112349;1190;60266;-70
2021/10/08 08:26:30;;;;;;;7.50;5.00;;;;;;;9.13;91.06;102590.64;112202;1193;73118;-71
2021/10/08 08:28:56;;;;;;;8.20;4.40;;;;;;;9.31;91.37;102586.45;112350;1191;72638;-70
2021/10/08 08:31:23;;;;;;;9.90;5.40;;;;;;;9.53;91.58;102589.50;112433;1190;60567;-71
2021/10/08 08:33:49;;;;;;;5.90;3.60;;;;;;;9.79;91.40;102593.59;112360;1191;59764;-70
2021/10/08 08:36:16;;;;;;;11.00;5.80;;;;;;;10.03;90.15;102589.36;112526;1191;60751;-70
2021/10/08 08:38:42;;;;;;;10.10;5.20;;;;;;;10.24;89.80;102590.46;112498;1190;60288;-72
2021/10/08 08:41:09;;;;;;;6.40;4.20;;;;;;;10.44;89.47;102585.73;112359;1192;59908;-71
2021/10/08 08:43:55;;;;;;;8.70;5.20;;;;;;;10.68;89.37;102588.09;112223;1192;73856;-73
2021/10/08 08:46:22;;;;;;;8.20;4.60;;;;;;;10.92;89.18;102589.95;112066;1193;60275;-73
2021/10/08 08:48:49;;;;;;;10.20;4.50;;;;;;;11.16;88.82;102587.41;111950;1192;61428;-71
2021/10/08 08:51:16;;;;;;;5.60;3.40;;;;;;;11.31;86.62;102585.26;111937;1192;74145;-72
2021/10/08 08:53:43;;;;;;;7.20;4.40;;;;;;;11.41;86.43;102579.95;111911;1192;72058;-70
2021/10/08 08:56:10;;;;;;;4.70;2.90;;;;;;;11.58;87.12;102581.59;112240;1193;73535;-71
2021/10/08 08:58:37;;;;;;;5.60;4.30;;;;;;;11.76;86.07;102584.80;112175;1193;63240;-71
2021/10/08 09:01:04;;;;;;;9.00;5.00;;;;;;;11.97;86.76;102581.37;112008;1192;59367;-71
2021/10/08 09:03:31;;;;;;;7.20;5.20;;;;;;;12.19;85.98;102577.83;112142;1193;73960;-73
2021/10/08 09:05:57;;;;;;;8.00;3.80;;;;;;;12.41;85.26;102571.23;112083;1192;60269;-72
2021/10/08 09:08:31;;;;;;;5.90;4.30;;;;;;;12.58;84.84;102571.58;112094;1190;60257;-72
2021/10/08 09:11:00;;;;;;;7.60;4.70;;;;;;;12.75;83.91;102564.34;112340;1190;60343;-70
2021/10/08 09:13:27;;;;;;;5.90;4.00;;;;;;;12.89;83.27;102563.38;112424;1192;60945;-71
2021/10/08 09:15:56;;;;;;;3.70;2.30;;;;;;;13.01;82.98;102562.54;112318;1192;74824;-70
2021/10/08 09:18:28;;;;;;;6.50;3.80;;;;;;;13.14;82.54;102561.60;112285;1192;69929;-70
2021/10/08 09:21:16;;;;;;;10.60;4.90;;;;;;;13.13;82.14;102561.88;111969;1192;73566;-71
2021/10/08 09:23:49;;;;;;;6.00;4.30;;;;;;;13.11;82.05;102565.05;112174;1192;61439;-70
2021/10/08 09:26:21;;;;;;;8.20;5.70;;;;;;;13.14;82.68;102563.14;112389;1192;60245;-72
2021/10/08 09:28:58;;;;;;;6.40;4.50;;;;;;;13.27;82.90;102561.36;112333;1192;74540;-71
2021/10/08 09:31:39;;;;;;;8.80;5.10;;;;;;;13.40;82.76;102562.84;112129;1193;71205;-71
2021/10/08 09:34:23;;;;;;;9.30;5.20;;;;;;;13.51;82.24;102563.00;112397;1192;74367;-73
2021/10/08 09:36:59;;;;;;;8.50;6.00;;;;;;;13.61;82.19;102569.15;112321;1192;61893;-71
2021/10/08 09:39:30;;;;;;;9.80;6.20;;;;;;;13.73;81.84;102566.90;112417;1192;60430;-71
2021/10/08 09:42:01;;;;;;;10.00;6.50;;;;;;;13.85;81.74;102562.52;112374;1192;74341;-73
2021/10/08 09:44:30;;;;;;;9.20;5.10;;;;;;;13.97;81.39;102561.93;112376;1192;70962;-71
2021/10/08 09:47:23;;;;;;;11.60;5.80;;;;;;;14.10;81.21;102562.56;112354;1192;72292;-73
2021/10/08 09:49:52;;;;;;;11.50;6.60;;;;;;;14.31;80.90;102563.38;112293;1192;60605;-71
2021/10/08 09:52:32;;;;;;;11.70;5.70;;;;;;;14.51;80.61;102561.88;112492;1192;61646;-72
2021/10/08 09:55:01;;;;;;;9.70;5.30;;;;;;;14.79;80.54;102556.06;112319;1193;74376;-72
2021/10/08 09:57:28;;;;;;;13.10;7.10;;;;;;;15.04;80.04;102555.91;112374;1192;71009;-71
2021/10/08 09:59:55;;;;;;;14.90;7.80;;;;;;;15.31;79.50;102557.07;112284;1191;72864;-72
2021/10/08 10:02:22;;;;;;;11.00;7.60;;;;;;;15.55;78.31;102557.59;112420;1192;60292;-72
2021/10/08 10:04:52;;;;;;;15.90;7.70;;;;;;;15.71;77.31;102561.67;112287;1192;60816;-70
2021/10/08 10:07:22;;;;;;;14.70;8.20;;;;;;;15.82;76.56;102566.14;112294;1192;74836;-71
2021/10/08 10:09:50;;;;;;;14.30;6.80;;;;;;;15.95;76.64;102561.45;112387;1192;72239;-71
2021/10/08 10:12:35;;;;;;;17.00;8.60;;;;;;;16.07;76.20;102559.52;112318;1192;71346;-72
2021/10/08 10:15:02;;;;;;;13.90;6.70;;;;;;;16.21;75.97;102558.10;112217;1192;60124;-70
2021/10/08 10:17:29;;;;;;;13.10;8.40;;;;;;;16.28;75.26;102560.30;112067;1192;61854;-70
2021/10/08 10:19:58;;;;;;;9.70;6.30;;;;;;;16.34;74.82;102558.94;112095;1192;73936;-72
2021/10/08 10:22:25;;;;;;;12.80;7.40;;;;;;;16.50;74.96;102558.26;112130;1191;70905;-73
2021/10/08 10:24:53;;;;;;;12.60;7.80;;;;;;;16.73;74.99;102557.54;112119;1192;72661;-71
2021/10/08 10:27:19;;;;;;;15.00;8.60;;;;;;;16.94;73.97;102556.81;112245;1192;60489;-71
2021/10/08 10:29:46;;;;;;;13.80;8.10;;;;;;;17.07;72.88;102556.77;112173;1192;60777;-71
2021/10/08 10:32:14;;;;;;;15.90;8.80;;;;;;;17.14;72.35;102561.41;112361;1192;75532;-71
2021/10/08 10:34:41;;;;;;;15.50;8.50;;;;;;;17.11;72.38;102556.89;112187;1192;70652;-73
2021/10/08 10:37:09;;;;;;;12.30;8.20;;;;;;;17.12;72.48;102559.80;112214;1192;72785;-71
2021/10/08 10:39:36;;;;;;;15.60;10.20;;;;;;;17.12;71.72;102559.30;112195;1193;60324;-73
2021/10/08 10:42:03;;;;;;;14.80;8.20;;;;;;;17.14;71.93;102557.16;112036;1191;60226;-73
2021/10/08 10:44:34;;;;;;;12.40;8.10;;;;;;;17.19;71.71;102555.63;111956;1192;60268;-72
2021/10/08 10:47:24;;;;;;;14.10;10.00;;;;;;;17.25;71.19;102555.71;112025;1191;71425;-72
2021/10/08 10:50:18;;;;;;;13.90;8.10;;;;;;;17.32;71.37;102552.98;111910;1193;73666;-74
2021/10/08 10:52:50;;;;;;;15.50;9.10;;;;;;;17.36;71.60;102554.80;112320;1192;60569;-74
2021/10/08 10:55:18;;;;;;;14.40;10.40;;;;;;;17.36;71.31;102552.52;112448;1192;60795;-73
2021/10/08 10:57:57;;;;;;;14.40;9.90;;;;;;;17.42;71.28;102547.02;112450;1192;73806;-72
2021/10/08 11:00:35;;;;;;;15.20;9.90;;;;;;;17.62;70.82;102543.66;112530;1193;70505;-72
2021/10/08 11:03:14;;;;;;;14.40;9.70;;;;;;;17.93;70.65;102540.63;112514;1192;73281;-73
2021/10/08 11:06:05;;;;;;;15.40;9.20;;;;;;;18.19;69.19;102536.19;112207;1192;62855;-72
2021/10/08 11:08:32;;;;;;;16.30;10.60;;;;;;;18.27;67.59;102535.50;112152;1192;61300;-72
2021/10/08 11:10:58;;;;;;;12.20;8.30;;;;;;;18.29;67.38;102530.63;112303;1192;74999;-72
2021/10/08 11:13:33;;;;;;;16.10;10.20;;;;;;;18.25;67.17;102532.86;112193;1192;60259;-72
2021/10/08 11:16:05;;;;;;;15.00;10.90;;;;;;;18.30;67.46;102532.98;112329;1192;73898;-73
2021/10/08 11:18:44;;;;;;;12.20;8.30;;;;;;;18.39;67.62;102530.73;112269;1192;60366;-72
2021/10/08 11:21:34;;;;;;;11.20;7.80;;;;;;;18.48;66.86;102529.18;112240;1190;60454;-72
2021/10/08 11:24:31;;;;;;;15.60;9.70;;;;;;;18.55;66.29;102521.48;112364;1192;75601;-73
2021/10/08 11:27:03;;;;;;;13.30;9.90;;;;;;;18.70;65.83;102525.27;112390;1192;71352;-75
2021/10/08 11:29:33;;;;;;;14.20;9.20;;;;;;;18.88;65.25;102522.08;112325;1192;73746;-72